Time;durP1;ratioP1;P1;durP2;ratioP2;P2;SDS_P1;SDS_P2;PMS_P1;PMS_P2;Temp;Humidity;BMP_temperature;BMP_pressure;BME280_temperature;BME280_humidity;BME280_pressure;Samples;Min_cycle;Max_cycle;Signal;HPM_P1;HPM_P2
2020/12/16 00:02:25;;;;;;;2.40;2.05;;;10.70;99.90;;;;;;5007523;28;20803;-26
2020/12/16 00:04:55;;;;;;;4.00;2.30;;;10.70;99.90;;;;;;5008538;28;20184;-25
2020/12/16 00:07:26;;;;;;;3.10;1.90;;;10.70;99.90;;;;;;5008683;28;20220;-25
2020/12/16 00:09:57;;;;;;;2.20;2.00;;;10.60;99.90;;;;;;4999108;28;20314;-25
2020/12/16 00:12:29;;;;;;;2.83;1.95;;;10.60;99.90;;;;;;5008125;28;20692;-25
2020/12/16 00:15:00;;;;;;;3.72;2.40;;;10.50;99.90;;;;;;5008384;28;20326;-25
2020/12/16 00:17:35;;;;;;;3.58;2.70;;;10.50;99.90;;;;;;5003545;28;20211;-24
2020/12/16 00:20:08;;;;;;;3.60;2.72;;;10.40;99.90;;;;;;5011810;28;20301;-26
2020/12/16 00:22:40;;;;;;;2.70;2.50;;;10.30;99.90;;;;;;5012532;28;20196;-25
2020/12/16 00:25:13;;;;;;;3.70;2.55;;;10.20;99.90;;;;;;5013383;28;20211;-24
2020/12/16 00:27:47;;;;;;;4.68;3.05;;;10.10;99.90;;;;;;5012262;28;20214;-25
2020/12/16 00:30:17;;;;;;;3.58;2.58;;;10.20;99.90;;;;;;5010638;28;20203;-26
2020/12/16 00:32:48;;;;;;;3.78;2.90;;;10.20;99.90;;;;;;5012267;28;20295;-26
2020/12/16 00:35:19;;;;;;;5.47;2.65;;;10.20;99.90;;;;;;5008804;28;20218;-26
2020/12/16 00:37:49;;;;;;;9.48;3.55;;;10.10;99.90;;;;;;5011551;28;20191;-26
2020/12/16 00:40:19;;;;;;;7.68;3.47;;;10.10;99.90;;;;;;5011014;28;20215;-26
2020/12/16 00:42:51;;;;;;;4.60;2.97;;;10.10;99.90;;;;;;5011845;28;20282;-26
2020/12/16 00:45:22;;;;;;;3.55;3.20;;;10.10;99.90;;;;;;5011397;28;20203;-26
2020/12/16 00:47:52;;;;;;;3.50;2.75;;;10.20;99.90;;;;;;5009560;28;20223;-26
2020/12/16 00:50:22;;;;;;;6.30;3.20;;;10.10;99.90;;;;;;5008843;28;20203;-26
2020/12/16 00:52:55;;;;;;;6.45;3.17;;;10.10;99.90;;;;;;5010561;28;20203;-25
2020/12/16 00:55:25;;;;;;;3.78;3.30;;;10.10;99.90;;;;;;5011143;28;20198;-26
2020/12/16 00:57:58;;;;;;;3.70;2.72;;;10.00;99.90;;;;;;5010040;28;20681;-27
2020/12/16 01:00:28;;;;;;;5.43;3.42;;;10.00;99.90;;;;;;5011898;28;20212;-26
2020/12/16 01:02:59;;;;;;;4.75;3.70;;;10.00;99.90;;;;;;5012259;28;20686;-26
2020/12/16 01:05:29;;;;;;;5.65;3.22;;;9.90;99.90;;;;;;5011750;28;20196;-26
2020/12/16 01:07:59;;;;;;;5.05;3.40;;;9.90;99.90;;;;;;5010774;28;20219;-25
2020/12/16 01:10:29;;;;;;;4.70;3.03;;;9.80;99.90;;;;;;5008891;28;20735;-25
2020/12/16 01:13:01;;;;;;;5.50;3.35;;;9.80;99.90;;;;;;5011726;28;20188;-26
2020/12/16 01:15:31;;;;;;;6.25;3.80;;;9.80;99.90;;;;;;5011517;28;20192;-27
2020/12/16 01:18:01;;;;;;;5.22;3.20;;;9.80;99.90;;;;;;5010761;28;20535;-26
2020/12/16 01:20:31;;;;;;;6.20;3.58;;;9.70;99.90;;;;;;5009519;28;20219;-26
2020/12/16 01:23:10;;;;;;;6.60;3.95;;;9.70;99.90;;;;;;5011051;28;20191;-26
2020/12/16 01:25:40;;;;;;;4.15;3.30;;;9.80;99.90;;;;;;5009196;28;20214;-26
2020/12/16 01:28:11;;;;;;;3.55;3.25;;;9.80;99.90;;;;;;5011572;28;20606;-26
2020/12/16 01:30:42;;;;;;;9.95;4.22;;;9.80;99.90;;;;;;5007924;28;20692;-25
2020/12/16 01:33:12;;;;;;;8.70;5.07;;;9.90;99.90;;;;;;5011008;28;20207;-26
2020/12/16 01:35:42;;;;;;;10.20;5.40;;;10.00;99.90;;;;;;5009910;28;20215;-25
2020/12/16 01:38:12;;;;;;;5.88;4.60;;;10.00;99.90;;;;;;5010942;28;20658;-25
2020/12/16 01:40:42;;;;;;;4.72;4.20;;;10.10;99.90;;;;;;5009068;28;20218;-26
2020/12/16 01:43:14;;;;;;;4.90;4.43;;;10.00;99.90;;;;;;5010962;28;20323;-26
2020/12/16 01:45:44;;;;;;;8.48;5.15;;;10.00;99.90;;;;;;5009642;28;20196;-26
2020/12/16 01:48:15;;;;;;;9.07;5.75;;;10.00;99.90;;;;;;5009108;28;20195;-25
2020/12/16 01:50:45;;;;;;;6.72;4.25;;;10.00;99.90;;;;;;5009231;28;20196;-26
2020/12/16 01:53:30;;;;;;;8.13;4.15;;;10.00;99.90;;;;;;5010421;28;20307;-26
2020/12/16 01:56:01;;;;;;;10.35;6.53;;;10.00;99.90;;;;;;5009995;28;20207;-25
2020/12/16 01:58:36;;;;;;;10.88;5.40;;;10.00;99.90;;;;;;5009917;28;20188;-26
2020/12/16 02:01:06;;;;;;;7.18;4.85;;;10.00;99.90;;;;;;5009494;28;20210;-26
2020/12/16 02:03:37;;;;;;;10.95;5.53;;;10.00;99.90;;;;;;5011142;28;20202;-26
2020/12/16 02:06:10;;;;;;;9.32;4.75;;;10.10;99.90;;;;;;5011480;28;20199;-26
2020/12/16 02:08:43;;;;;;;6.75;5.32;;;10.10;99.90;;;;;;5011772;28;20187;-26
2020/12/16 02:11:15;;;;;;;6.18;5.38;;;10.10;99.90;;;;;;4999631;28;20289;-26
2020/12/16 02:13:46;;;;;;;7.88;5.53;;;10.10;99.90;;;;;;5010751;28;20196;-26
2020/12/16 02:16:16;;;;;;;6.20;5.43;;;10.10;99.90;;;;;;5003947;28;20200;-26
2020/12/16 02:18:47;;;;;;;6.88;5.70;;;10.20;99.90;;;;;;5011367;28;20203;-26
2020/12/16 02:21:17;;;;;;;9.48;5.60;;;10.10;99.90;;;;;;4995643;28;20219;-26
2020/12/16 02:23:51;;;;;;;8.23;6.15;;;10.10;99.90;;;;;;5011155;28;20213;-26
2020/12/16 02:26:22;;;;;;;8.60;6.38;;;10.10;99.90;;;;;;5010475;28;20196;-26
2020/12/16 02:28:52;;;;;;;7.82;7.05;;;10.00;99.90;;;;;;5011581;28;20191;-26
2020/12/16 02:31:23;;;;;;;8.90;8.00;;;10.00;99.90;;;;;;5004063;28;20184;-26
2020/12/16 02:33:53;;;;;;;9.35;8.35;;;10.00;99.90;;;;;;5010774;28;20241;-26
2020/12/16 02:36:23;;;;;;;10.88;8.00;;;9.90;99.90;;;;;;5008337;28;20199;-26
2020/12/16 02:38:54;;;;;;;10.10;6.85;;;9.80;99.90;;;;;;5010595;28;20193;-26
2020/12/16 02:41:27;;;;;;;8.57;6.53;;;9.80;99.90;;;;;;5007181;28;20223;-26
2020/12/16 02:43:57;;;;;;;9.15;7.07;;;9.90;99.90;;;;;;5009358;28;20531;-27
2020/12/16 02:46:27;;;;;;;7.68;6.93;;;9.80;99.90;;;;;;5009918;28;20546;-26
2020/12/16 02:48:57;;;;;;;10.80;7.32;;;9.90;99.90;;;;;;5009745;28;20197;-26
2020/12/16 02:51:27;;;;;;;8.70;7.78;;;9.80;99.90;;;;;;5007946;28;20610;-26
2020/12/16 02:54:03;;;;;;;11.63;8.20;;;9.90;99.90;;;;;;5010282;28;20287;-25
2020/12/16 02:56:34;;;;;;;8.13;7.35;;;9.90;99.90;;;;;;5010471;28;20198;-25
2020/12/16 02:59:04;;;;;;;8.13;7.43;;;9.80;99.90;;;;;;5010613;28;20195;-26
2020/12/16 03:01:34;;;;;;;6.90;6.20;;;9.70;99.90;;;;;;5010786;28;20220;-26
2020/12/16 03:04:04;;;;;;;11.55;7.80;;;9.70;99.90;;;;;;5010871;28;20203;-26
2020/12/16 03:06:35;;;;;;;11.10;7.53;;;9.80;99.90;;;;;;5010363;28;20273;-26
2020/12/16 03:09:05;;;;;;;14.23;7.72;;;9.80;99.90;;;;;;5008760;28;20195;-26
2020/12/16 03:11:36;;;;;;;15.25;9.07;;;9.80;99.90;;;;;;5009512;28;20232;-26
2020/12/16 03:14:06;;;;;;;13.07;9.93;;;9.70;99.90;;;;;;5010560;28;20623;-26
2020/12/16 03:16:37;;;;;;;10.20;9.20;;;9.80;99.90;;;;;;5010100;28;20202;-26
2020/12/16 03:19:07;;;;;;;10.90;9.10;;;9.80;99.90;;;;;;5006829;28;20207;-26
2020/12/16 03:21:37;;;;;;;9.68;8.77;;;9.80;99.90;;;;;;4994474;28;20226;-26
2020/12/16 03:24:21;;;;;;;10.10;9.20;;;9.70;99.90;;;;;;5009100;28;20247;-26
2020/12/16 03:26:52;;;;;;;11.70;10.32;;;9.80;99.90;;;;;;5007503;28;20214;-26
2020/12/16 03:29:22;;;;;;;12.23;9.25;;;9.80;99.90;;;;;;5007813;28;20251;-26
2020/12/16 03:31:52;;;;;;;11.65;9.13;;;9.80;99.90;;;;;;5009173;28;20206;-26
2020/12/16 03:34:23;;;;;;;10.50;8.68;;;9.80;99.90;;;;;;5008562;28;20238;-27
2020/12/16 03:36:53;;;;;;;10.93;9.82;;;9.80;99.90;;;;;;5007364;28;20215;-26
2020/12/16 03:39:23;;;;;;;13.88;9.90;;;9.80;99.90;;;;;;5008327;28;20218;-26
2020/12/16 03:41:54;;;;;;;9.48;7.95;;;9.70;99.90;;;;;;5008703;28;20235;-25
2020/12/16 03:44:24;;;;;;;8.82;7.30;;;9.70;99.90;;;;;;5010208;28;20195;-25
2020/12/16 03:46:56;;;;;;;12.93;11.43;;;9.70;99.90;;;;;;5008395;28;20385;-25
2020/12/16 03:49:27;;;;;;;12.30;9.55;;;9.70;99.90;;;;;;5009848;28;20299;-25
2020/12/16 03:51:57;;;;;;;9.57;7.10;;;9.60;99.90;;;;;;4998261;28;20690;-25
2020/12/16 03:54:42;;;;;;;7.18;6.10;;;9.60;99.90;;;;;;5006492;28;20187;-25
2020/12/16 03:57:14;;;;;;;9.80;6.40;;;9.60;99.90;;;;;;5007386;28;20667;-25
2020/12/16 03:59:44;;;;;;;10.05;6.85;;;9.50;99.90;;;;;;5008032;28;20187;-26
2020/12/16 04:02:14;;;;;;;12.68;8.82;;;9.50;99.90;;;;;;5003049;28;20623;-26
2020/12/16 04:04:44;;;;;;;8.30;7.50;;;9.40;99.90;;;;;;5009460;28;20286;-26
2020/12/16 04:07:14;;;;;;;9.75;7.63;;;9.40;99.90;;;;;;5008721;28;20301;-26
2020/12/16 04:09:44;;;;;;;8.60;6.97;;;9.40;99.90;;;;;;5008956;28;20608;-27
2020/12/16 04:12:16;;;;;;;10.93;9.63;;;9.30;99.90;;;;;;5008603;28;20237;-27
2020/12/16 04:14:46;;;;;;;14.38;9.52;;;9.20;99.90;;;;;;5009191;28;20289;-27
2020/12/16 04:17:16;;;;;;;11.45;9.35;;;9.10;99.90;;;;;;5006273;28;20222;-26
2020/12/16 04:19:46;;;;;;;11.07;8.23;;;9.20;99.90;;;;;;5009031;28;20829;-26
2020/12/16 04:22:16;;;;;;;10.52;9.63;;;9.20;99.90;;;;;;5008839;28;20510;-26
2020/12/16 04:24:57;;;;;;;12.45;8.98;;;9.20;99.90;;;;;;5007321;28;20250;-27
2020/12/16 04:27:28;;;;;;;8.85;8.00;;;9.20;99.90;;;;;;5005690;28;20198;-26
2020/12/16 04:29:59;;;;;;;7.88;7.07;;;9.20;99.90;;;;;;5008622;28;20191;-26
2020/12/16 04:32:29;;;;;;;6.97;6.20;;;9.20;99.90;;;;;;5008283;28;20535;-25
2020/12/16 04:34:59;;;;;;;8.63;5.85;;;9.20;99.90;;;;;;5011149;28;20673;-26
2020/12/16 04:37:29;;;;;;;7.93;6.20;;;9.10;99.90;;;;;;5008217;28;20195;-25
2020/12/16 04:39:59;;;;;;;7.05;5.90;;;9.20;99.90;;;;;;5007893;28;20211;-26
2020/12/16 04:42:30;;;;;;;8.52;6.28;;;9.20;99.90;;;;;;5008340;28;20204;-26
2020/12/16 04:45:01;;;;;;;9.52;7.75;;;9.20;99.90;;;;;;5009669;28;20194;-26
2020/12/16 04:47:32;;;;;;;8.23;6.95;;;9.10;99.90;;;;;;5009750;28;20287;-26
2020/12/16 04:50:02;;;;;;;10.60;7.97;;;9.10;99.90;;;;;;5005567;28;20579;-27
2020/12/16 04:52:35;;;;;;;18.35;14.90;;;9.00;99.90;;;;;;5009480;28;20205;-26
2020/12/16 04:55:16;;;;;;;18.27;12.85;;;9.00;99.90;;;;;;5008792;28;20262;-26
2020/12/16 04:57:52;;;;;;;11.43;9.88;;;9.00;99.90;;;;;;5009256;28;20210;-27
2020/12/16 05:00:23;;;;;;;12.80;11.02;;;9.10;99.90;;;;;;4998600;28;20212;-26
2020/12/16 05:02:56;;;;;;;11.70;10.10;;;9.10;99.90;;;;;;5008079;28;20203;-26
2020/12/16 05:05:27;;;;;;;12.02;10.30;;;9.20;99.90;;;;;;5010383;28;20202;-26
2020/12/16 05:07:57;;;;;;;12.20;9.48;;;9.10;99.90;;;;;;5010558;28;20687;-26
2020/12/16 05:10:33;;;;;;;11.18;9.57;;;9.10;99.90;;;;;;5010698;28;20826;-27
2020/12/16 05:13:06;;;;;;;11.43;9.98;;;9.00;99.90;;;;;;5010736;28;20211;-27
2020/12/16 05:15:36;;;;;;;11.95;8.90;;;9.00;99.90;;;;;;5011222;28;20238;-25
2020/12/16 05:18:15;;;;;;;9.75;7.47;;;9.00;99.90;;;;;;5011751;28;20310;-25
2020/12/16 05:20:46;;;;;;;8.35;6.97;;;9.10;99.90;;;;;;5011006;28;20335;-25
2020/12/16 05:23:17;;;;;;;10.05;7.38;;;9.20;99.90;;;;;;5006984;28;20246;-26
2020/12/16 05:26:02;;;;;;;9.90;6.82;;;9.30;99.90;;;;;;5011787;28;20234;-27
2020/12/16 05:28:35;;;;;;;7.57;6.32;;;9.40;99.90;;;;;;5010256;28;20254;-27
2020/12/16 05:31:07;;;;;;;8.18;6.72;;;9.50;99.90;;;;;;5002389;28;20257;-27
2020/12/16 05:33:42;;;;;;;10.85;7.95;;;9.40;99.90;;;;;;5012002;28;20580;-26
2020/12/16 05:36:12;;;;;;;9.73;6.75;;;9.50;99.90;;;;;;5012028;28;20203;-26
2020/12/16 05:38:52;;;;;;;13.57;7.63;;;9.40;99.90;;;;;;5009011;28;20200;-25
2020/12/16 05:41:27;;;;;;;7.97;6.35;;;9.40;99.90;;;;;;4998005;28;20296;-26
2020/12/16 05:44:20;;;;;;;9.55;7.10;;;9.40;99.90;;;;;;5012529;28;20705;-27
2020/12/16 05:46:51;;;;;;;8.27;6.88;;;9.40;99.90;;;;;;5007792;28;20667;-26
2020/12/16 05:49:24;;;;;;;6.80;6.10;;;9.50;99.90;;;;;;5012216;28;20271;-27
2020/12/16 05:51:58;;;;;;;7.35;6.47;;;9.50;99.90;;;;;;5009503;28;20195;-27
2020/12/16 05:54:28;;;;;;;8.35;6.63;;;9.60;99.90;;;;;;5008688;28;20195;-26
2020/12/16 05:57:16;;;;;;;7.55;6.55;;;9.60;99.90;;;;;;5010058;28;20228;-25
2020/12/16 06:00:06;;;;;;;8.15;7.22;;;9.60;99.90;;;;;;5009770;28;20191;-26
2020/12/16 06:02:38;;;;;;;10.07;6.90;;;9.60;99.90;;;;;;5010077;28;20717;-26
2020/12/16 06:05:09;;;;;;;7.68;6.50;;;9.70;99.90;;;;;;5009085;28;20184;-25
2020/12/16 06:07:41;;;;;;;8.68;6.43;;;9.70;99.90;;;;;;5010793;28;20313;-26
2020/12/16 06:10:12;;;;;;;9.27;5.47;;;9.80;99.90;;;;;;5008216;28;20243;-26
2020/12/16 06:12:43;;;;;;;7.05;6.00;;;9.80;99.90;;;;;;5011885;28;20226;-25
2020/12/16 06:15:16;;;;;;;8.07;6.50;;;9.80;99.90;;;;;;5009302;28;20275;-26
2020/12/16 06:17:47;;;;;;;7.00;6.30;;;9.80;99.90;;;;;;5005977;28;20215;-26
2020/12/16 06:20:18;;;;;;;9.25;5.95;;;9.80;99.90;;;;;;5007065;28;20198;-26
2020/12/16 06:22:50;;;;;;;6.85;6.25;;;9.90;99.90;;;;;;5002912;28;20591;-26
2020/12/16 06:25:20;;;;;;;7.90;5.78;;;9.80;99.90;;;;;;5010240;28;20192;-25
2020/12/16 06:27:52;;;;;;;9.98;7.07;;;9.90;99.90;;;;;;5011644;28;20199;-27
2020/12/16 06:30:31;;;;;;;7.85;6.78;;;9.90;99.90;;;;;;5009454;28;20207;-27
2020/12/16 06:33:08;;;;;;;7.28;6.10;;;9.90;99.90;;;;;;5009107;28;20195;-26
2020/12/16 06:35:40;;;;;;;7.75;5.95;;;10.00;99.90;;;;;;5009563;28;20202;-26
2020/12/16 06:38:21;;;;;;;9.23;6.13;;;10.00;99.90;;;;;;5006224;28;20195;-27
2020/12/16 06:40:52;;;;;;;9.05;7.25;;;9.90;99.90;;;;;;5008997;28;20223;-26
2020/12/16 06:43:44;;;;;;;8.68;6.88;;;10.00;99.90;;;;;;5009178;28;20200;-25
2020/12/16 06:46:52;;;;;;;7.22;6.30;;;10.00;99.90;;;;;;5009318;28;20211;-30
2020/12/16 06:49:38;;;;;;;8.75;7.85;;;10.00;99.90;;;;;;5009710;28;20592;-26
2020/12/16 06:52:10;;;;;;;8.85;7.47;;;10.00;99.90;;;;;;5007128;28;20194;-26
2020/12/16 06:54:54;;;;;;;8.32;6.78;;;10.00;99.90;;;;;;5008285;28;20199;-26
2020/12/16 06:57:29;;;;;;;7.65;6.93;;;10.00;99.90;;;;;;5009039;28;20184;-26
2020/12/16 07:00:00;;;;;;;9.40;8.60;;;10.10;99.90;;;;;;5009578;28;20210;-26
2020/12/16 07:02:35;;;;;;;8.98;7.88;;;10.10;99.90;;;;;;5009765;28;20216;-26
2020/12/16 07:05:07;;;;;;;12.45;7.22;;;10.00;99.90;;;;;;5009096;28;20627;-26
2020/12/16 07:07:55;;;;;;;7.32;6.63;;;10.10;99.90;;;;;;5006574;28;20292;-26
2020/12/16 07:10:50;;;;;;;7.80;7.00;;;10.00;99.90;;;;;;5007909;28;20714;-26
2020/12/16 07:13:29;;;;;;;10.85;8.90;;;10.10;99.90;;;;;;5008641;28;20211;-26
2020/12/16 07:16:09;;;;;;;8.27;7.20;;;10.10;99.90;;;;;;5008366;28;20290;-26
2020/12/16 07:18:51;;;;;;;10.40;7.88;;;10.10;99.90;;;;;;5008413;28;20699;-26
2020/12/16 07:21:32;;;;;;;8.60;7.80;;;10.20;99.90;;;;;;5008758;28;20258;-26
2020/12/16 07:24:10;;;;;;;8.05;7.10;;;10.20;99.90;;;;;;5006591;28;20782;-26
2020/12/16 07:26:52;;;;;;;10.02;8.93;;;10.20;99.90;;;;;;5007402;28;20718;-26
2020/12/16 07:29:26;;;;;;;7.53;6.82;;;10.20;99.90;;;;;;5009051;28;20198;-26
2020/12/16 07:32:02;;;;;;;7.35;6.70;;;10.20;99.90;;;;;;5009291;28;20195;-26
2020/12/16 07:34:44;;;;;;;9.73;6.95;;;10.20;99.90;;;;;;5004721;28;20278;-26
2020/12/16 07:37:16;;;;;;;9.57;6.78;;;10.10;99.90;;;;;;5008868;28;20287;-26
2020/12/16 07:39:50;;;;;;;8.10;7.20;;;10.20;99.90;;;;;;5007309;28;20194;-25
2020/12/16 07:42:37;;;;;;;8.27;6.20;;;10.10;99.90;;;;;;5008635;28;20237;-26
2020/12/16 07:45:15;;;;;;;8.85;6.10;;;10.10;99.90;;;;;;5006670;28;20215;-26
2020/12/16 07:47:53;;;;;;;8.52;6.05;;;10.10;99.90;;;;;;5008316;28;20191;-26
2020/12/16 07:50:25;;;;;;;9.13;6.45;;;10.00;99.90;;;;;;5007708;28;20480;-26
2020/12/16 07:52:58;;;;;;;6.90;6.18;;;10.00;99.90;;;;;;5009339;28;20715;-26
2020/12/16 07:55:29;;;;;;;8.77;7.15;;;10.00;99.90;;;;;;5007385;28;20502;-25
2020/12/16 07:58:08;;;;;;;7.05;6.25;;;10.00;99.90;;;;;;5007706;28;20246;-26
2020/12/16 08:00:38;;;;;;;6.32;5.82;;;10.10;99.90;;;;;;5006858;28;20195;-25
2020/12/16 08:03:09;;;;;;;7.45;5.72;;;10.00;99.90;;;;;;5008413;28;20563;-26
2020/12/16 08:05:40;;;;;;;10.25;6.20;;;10.00;99.90;;;;;;5002796;28;20184;-26
2020/12/16 08:08:10;;;;;;;6.68;5.70;;;10.00;99.90;;;;;;5008169;28;20196;-26
2020/12/16 08:10:45;;;;;;;6.30;5.68;;;10.00;99.90;;;;;;5007168;28;20259;-25
2020/12/16 08:13:22;;;;;;;11.07;6.53;;;10.00;99.90;;;;;;5007122;28;20187;-26
2020/12/16 08:15:52;;;;;;;5.20;4.70;;;10.00;99.90;;;;;;5006601;28;20303;-25
2020/12/16 08:18:23;;;;;;;5.93;5.40;;;10.00;99.90;;;;;;5008277;28;20191;-24
2020/12/16 08:20:54;;;;;;;9.15;6.15;;;10.10;99.90;;;;;;5008441;28;20337;-25
2020/12/16 08:23:24;;;;;;;8.13;5.70;;;10.10;99.90;;;;;;5007620;28;20564;-26
2020/12/16 08:25:55;;;;;;;7.38;5.90;;;10.10;99.90;;;;;;5006339;28;20194;-26
2020/12/16 08:28:28;;;;;;;7.95;5.85;;;10.00;99.90;;;;;;5006919;28;20630;-26
2020/12/16 08:31:03;;;;;;;9.73;5.72;;;10.00;99.90;;;;;;5005926;28;20279;-26
2020/12/16 08:33:34;;;;;;;7.35;4.90;;;10.10;99.90;;;;;;5008465;28;20330;-25
2020/12/16 08:36:08;;;;;;;6.75;5.85;;;10.10;99.90;;;;;;5008955;28;20195;-25
2020/12/16 08:38:40;;;;;;;7.45;4.93;;;10.10;99.90;;;;;;5009243;28;20193;-25
2020/12/16 08:41:11;;;;;;;7.10;5.57;;;10.10;99.90;;;;;;5012621;28;20211;-25
2020/12/16 08:43:43;;;;;;;6.25;5.63;;;10.10;99.90;;;;;;5013424;28;20203;-25
2020/12/16 08:46:16;;;;;;;9.02;5.45;;;10.10;99.90;;;;;;5012841;28;20199;-26
2020/12/16 08:48:48;;;;;;;5.25;4.72;;;10.10;99.90;;;;;;5013235;28;20218;-26
2020/12/16 08:51:24;;;;;;;9.35;4.80;;;10.00;99.90;;;;;;5012294;28;20521;-25
2020/12/16 08:53:58;;;;;;;6.35;5.10;;;10.00;99.90;;;;;;5012802;28;20183;-26
2020/12/16 08:56:32;;;;;;;10.13;4.90;;;10.00;99.90;;;;;;5012174;28;20515;-26
2020/12/16 08:59:05;;;;;;;8.55;5.75;;;10.00;99.90;;;;;;5012978;28;20212;-26
2020/12/16 09:01:36;;;;;;;6.32;5.72;;;10.00;99.90;;;;;;5009725;28;20242;-26
2020/12/16 09:04:08;;;;;;;6.57;5.28;;;10.00;99.90;;;;;;5011997;28;20195;-26
2020/12/16 09:06:40;;;;;;;7.30;4.75;;;10.00;99.90;;;;;;5009804;28;20302;-26
2020/12/16 09:09:17;;;;;;;7.28;5.22;;;10.10;99.90;;;;;;5009360;28;20188;-26
2020/12/16 09:11:51;;;;;;;5.35;4.95;;;10.10;99.90;;;;;;5008357;28;20645;-26
2020/12/16 09:14:22;;;;;;;9.57;4.70;;;10.10;99.90;;;;;;5011402;28;20200;-26
2020/12/16 09:16:53;;;;;;;5.63;4.97;;;10.00;99.90;;;;;;5011749;28;20188;-26
2020/12/16 09:19:25;;;;;;;5.40;4.50;;;10.10;99.90;;;;;;5010012;28;20198;-26
2020/12/16 09:22:01;;;;;;;5.72;5.05;;;10.10;99.90;;;;;;5011998;28;20222;-26
2020/12/16 09:24:33;;;;;;;6.60;4.65;;;10.10;99.90;;;;;;5012633;28;20214;-26
2020/12/16 09:27:07;;;;;;;6.53;4.40;;;10.10;99.90;;;;;;5012049;28;20195;-27
2020/12/16 09:29:45;;;;;;;7.65;4.63;;;10.10;99.90;;;;;;5012477;28;20192;-26
2020/12/16 09:32:16;;;;;;;7.68;4.35;;;10.10;99.90;;;;;;5011895;28;20199;-25
2020/12/16 09:34:48;;;;;;;5.80;4.80;;;10.00;99.90;;;;;;5008035;28;20660;-25
2020/12/16 09:37:23;;;;;;;4.70;4.20;;;10.00;99.90;;;;;;5011750;28;20310;-26
2020/12/16 09:40:05;;;;;;;5.43;4.60;;;10.00;99.90;;;;;;5011743;28;20647;-25
2020/12/16 09:42:36;;;;;;;6.35;4.25;;;10.00;99.90;;;;;;4995551;28;20317;-26
2020/12/16 09:45:11;;;;;;;8.13;4.70;;;10.00;99.90;;;;;;4992511;28;20189;-25
2020/12/16 09:47:45;;;;;;;6.22;4.82;;;10.00;99.90;;;;;;5009144;28;20265;-26
2020/12/16 09:50:16;;;;;;;6.68;4.20;;;10.00;99.90;;;;;;5010447;28;20276;-26
2020/12/16 09:52:47;;;;;;;5.22;4.60;;;9.90;99.90;;;;;;5010426;28;20189;-26
2020/12/16 09:55:19;;;;;;;6.53;4.35;;;9.90;99.90;;;;;;5010021;28;20651;-26
2020/12/16 09:57:59;;;;;;;4.95;4.40;;;10.00;99.90;;;;;;5010995;28;20196;-26
2020/12/16 10:00:30;;;;;;;5.60;4.43;;;10.00;99.90;;;;;;5008623;28;20196;-26
2020/12/16 10:03:01;;;;;;;5.00;4.60;;;9.90;99.90;;;;;;5010878;28;20219;-25
2020/12/16 10:05:33;;;;;;;4.20;3.80;;;9.80;99.90;;;;;;5010386;28;20749;-25
2020/12/16 10:08:04;;;;;;;4.60;4.10;;;9.80;99.90;;;;;;5010670;28;20192;-26
2020/12/16 10:10:35;;;;;;;7.00;5.05;;;9.80;99.90;;;;;;5009903;28;20286;-25
2020/12/16 10:13:05;;;;;;;5.63;4.53;;;9.80;99.90;;;;;;5010432;28;20197;-25
2020/12/16 10:15:36;;;;;;;5.57;4.65;;;9.90;99.90;;;;;;5010131;28;20223;-26
2020/12/16 10:18:06;;;;;;;6.95;4.65;;;9.90;99.90;;;;;;5010192;28;20204;-25
2020/12/16 10:20:36;;;;;;;6.13;3.90;;;9.90;99.90;;;;;;5010221;28;20210;-25
2020/12/16 10:23:07;;;;;;;7.55;4.22;;;9.90;99.90;;;;;;5006988;28;20216;-26
2020/12/16 10:25:37;;;;;;;7.47;4.53;;;9.80;99.90;;;;;;5011928;28;20557;-26
2020/12/16 10:28:10;;;;;;;6.13;4.82;;;9.80;99.90;;;;;;5009415;28;20199;-26
2020/12/16 10:30:40;;;;;;;7.88;4.05;;;9.80;99.90;;;;;;5011424;28;20246;-26
2020/12/16 10:33:10;;;;;;;4.55;4.15;;;9.80;99.90;;;;;;4996181;28;20207;-26
2020/12/16 10:35:40;;;;;;;5.95;4.78;;;9.80;99.90;;;;;;5007171;28;20301;-25
2020/12/16 10:38:12;;;;;;;7.30;3.92;;;9.70;99.90;;;;;;5003408;28;20207;-25
2020/12/16 10:40:42;;;;;;;4.72;3.90;;;9.80;99.90;;;;;;5007603;28;20203;-26
2020/12/16 10:43:12;;;;;;;7.40;4.78;;;9.80;99.90;;;;;;5007261;28;20232;-25
2020/12/16 10:45:42;;;;;;;9.98;4.65;;;9.80;99.90;;;;;;5010182;28;20252;-26
2020/12/16 10:48:12;;;;;;;4.30;3.65;;;9.80;99.90;;;;;;5009634;28;20210;-25
2020/12/16 10:50:42;;;;;;;4.70;4.10;;;9.80;99.90;;;;;;5008912;28;20222;-25
2020/12/16 10:53:13;;;;;;;5.75;4.07;;;9.70;99.90;;;;;;5009348;28;20203;-26
2020/12/16 10:55:43;;;;;;;11.05;3.75;;;9.70;99.90;;;;;;5008846;28;20561;-26
2020/12/16 10:58:15;;;;;;;5.10;4.70;;;9.80;99.90;;;;;;5007753;28;20199;-26
2020/12/16 11:00:45;;;;;;;9.25;4.63;;;9.70;99.90;;;;;;5011229;28;20198;-26
2020/12/16 11:03:15;;;;;;;6.88;4.07;;;9.70;99.90;;;;;;5005504;28;20293;-26
2020/12/16 11:05:45;;;;;;;5.25;3.53;;;9.70;99.90;;;;;;5010657;28;20187;-26
2020/12/16 11:08:16;;;;;;;7.35;4.18;;;9.70;99.90;;;;;;5008349;28;20270;-26
2020/12/16 11:10:51;;;;;;;4.57;3.70;;;9.70;99.90;;;;;;5005249;28;20238;-26
2020/12/16 11:13:22;;;;;;;4.22;3.55;;;9.70;99.90;;;;;;4994171;28;20199;-26
2020/12/16 11:15:52;;;;;;;8.38;3.95;;;9.60;99.90;;;;;;5010543;28;20203;-25
2020/12/16 11:18:22;;;;;;;4.93;3.80;;;9.60;99.90;;;;;;5010543;28;20585;-26
2020/12/16 11:20:52;;;;;;;5.28;3.50;;;9.60;99.90;;;;;;5008814;28;20226;-27
2020/12/16 11:23:22;;;;;;;7.03;3.95;;;9.70;99.90;;;;;;5010216;28;20284;-26
2020/12/16 11:25:52;;;;;;;5.53;3.50;;;9.60;99.90;;;;;;5009703;28;20311;-26
2020/12/16 11:28:23;;;;;;;4.75;3.33;;;9.60;99.90;;;;;;5010512;28;20199;-26
2020/12/16 11:30:53;;;;;;;7.50;3.45;;;9.60;99.90;;;;;;5010461;28;20195;-26
2020/12/16 11:33:23;;;;;;;5.55;3.88;;;9.50;99.90;;;;;;5010274;28;20279;-26
2020/12/16 11:35:53;;;;;;;4.68;3.78;;;9.50;99.90;;;;;;5006436;28;20218;-26
2020/12/16 11:38:23;;;;;;;8.38;3.80;;;9.50;99.90;;;;;;5007321;28;20195;-26
2020/12/16 11:40:53;;;;;;;5.20;3.78;;;9.60;99.90;;;;;;5008466;28;20210;-25
2020/12/16 11:43:25;;;;;;;6.28;3.20;;;9.60;99.90;;;;;;5010090;28;20230;-26
2020/12/16 11:45:55;;;;;;;5.38;3.85;;;9.70;99.90;;;;;;5010257;28;20257;-26
2020/12/16 11:48:25;;;;;;;5.50;3.88;;;9.70;99.90;;;;;;5010201;28;20211;-26
2020/12/16 11:50:55;;;;;;;4.20;3.80;;;9.70;99.90;;;;;;5009761;28;20222;-26
2020/12/16 11:53:25;;;;;;;10.25;2.97;;;9.70;99.90;;;;;;5009502;28;20195;-26
2020/12/16 11:55:55;;;;;;;7.75;3.30;;;9.70;99.90;;;;;;5007982;28;20195;-26
2020/12/16 11:58:27;;;;;;;7.72;3.38;;;9.70;99.90;;;;;;5008525;28;20286;-26
2020/12/16 12:00:57;;;;;;;5.93;3.22;;;9.60;99.90;;;;;;5009608;28;20635;-26
2020/12/16 12:03:28;;;;;;;6.15;4.22;;;9.70;99.90;;;;;;5009823;28;20269;-26
2020/12/16 12:05:58;;;;;;;7.25;4.20;;;9.70;99.90;;;;;;5009598;28;20256;-26
2020/12/16 12:08:28;;;;;;;6.25;2.90;;;9.60;99.90;;;;;;5008687;28;20195;-26
2020/12/16 12:10:58;;;;;;;5.70;3.33;;;9.70;99.90;;;;;;4999996;28;20309;-26
2020/12/16 12:13:30;;;;;;;4.40;3.20;;;9.60;99.90;;;;;;5009154;28;20203;-26
2020/12/16 12:16:00;;;;;;;5.47;3.28;;;9.70;99.90;;;;;;4995977;28;20671;-26
2020/12/16 12:18:30;;;;;;;5.00;2.60;;;9.70;99.90;;;;;;5005486;28;20597;-26
2020/12/16 12:21:00;;;;;;;3.20;2.90;;;9.60;99.90;;;;;;5009150;28;20237;-26
2020/12/16 12:23:30;;;;;;;6.78;3.40;;;9.60;99.90;;;;;;5009195;28;20219;-26
2020/12/16 12:26:00;;;;;;;7.47;3.20;;;9.50;99.90;;;;;;5008163;28;20315;-28
2020/12/16 12:28:32;;;;;;;5.47;3.88;;;9.50;99.90;;;;;;5008421;28;20187;-26
2020/12/16 12:31:03;;;;;;;5.68;3.50;;;9.40;99.90;;;;;;5008729;28;20663;-26
2020/12/16 12:33:33;;;;;;;7.53;3.40;;;9.40;99.90;;;;;;5005465;28;20330;-26
2020/12/16 12:36:03;;;;;;;3.20;2.85;;;9.40;99.90;;;;;;5008230;28;20196;-26
2020/12/16 12:38:33;;;;;;;3.97;3.30;;;9.40;99.90;;;;;;5005818;28;20185;-26
2020/12/16 12:41:03;;;;;;;3.83;3.10;;;9.30;99.90;;;;;;5007865;28;20543;-26
2020/12/16 12:43:35;;;;;;;3.97;3.10;;;9.30;99.90;;;;;;5007882;28;20215;-26
2020/12/16 12:46:05;;;;;;;4.20;3.20;;;9.20;99.90;;;;;;5008489;28;20607;-27
2020/12/16 12:48:35;;;;;;;5.85;3.08;;;9.20;99.90;;;;;;5004428;28;20196;-26
2020/12/16 12:51:05;;;;;;;3.95;2.88;;;9.10;99.90;;;;;;5007879;28;20204;-26
2020/12/16 12:53:52;;;;;;;6.10;3.38;;;9.10;99.90;;;;;;5007555;28;20743;-26
2020/12/16 12:56:22;;;;;;;3.72;3.25;;;9.00;99.90;;;;;;5007752;28;20196;-25
2020/12/16 12:58:57;;;;;;;5.38;3.10;;;9.00;99.90;;;;;;5006904;28;20596;-26
2020/12/16 13:01:27;;;;;;;5.07;3.30;;;8.90;99.90;;;;;;5008004;28;20194;-26
2020/12/16 13:03:57;;;;;;;3.63;3.30;;;8.90;99.90;;;;;;5007013;28;20258;-27
2020/12/16 13:06:28;;;;;;;5.85;3.08;;;8.90;99.90;;;;;;5007659;28;20295;-27
2020/12/16 13:08:58;;;;;;;6.18;3.40;;;8.80;99.90;;;;;;5008108;28;20198;-26
2020/12/16 13:11:28;;;;;;;3.78;3.30;;;8.70;99.90;;;;;;5004993;28;20236;-26
2020/12/16 13:13:59;;;;;;;6.72;3.30;;;8.70;99.90;;;;;;5008711;28;20191;-27
2020/12/16 13:16:30;;;;;;;5.57;3.65;;;8.60;99.90;;;;;;5007853;28;20202;-26
2020/12/16 13:19:00;;;;;;;6.30;4.32;;;8.60;99.90;;;;;;5005284;28;20206;-25